Time;durP1;ratioP1;P1;durP2;ratioP2;P2;SDS_P1;SDS_P2;PMS_P1;PMS_P2;Temp;Humidity;BMP_temperature;BMP_pressure;BME280_temperature;BME280_humidity;BME280_pressure;Samples;Min_cycle;Max_cycle;Signal;HPM_P1;HPM_P2
2022/11/23 00:02:01;;;;;;;20.93;14.73;;;;;;;10.23;60.94;100050.31;5050138;28;20458;-75
2022/11/23 00:04:26;;;;;;;20.65;14.27;;;;;;;10.27;60.49;100051.56;5031381;28;20388;-76
2022/11/23 00:06:52;;;;;;;19.57;14.20;;;;;;;10.26;60.35;100048.09;5049069;28;20485;-76
2022/11/23 00:09:17;;;;;;;19.80;13.27;;;;;;;10.18;60.91;100045.53;5060038;28;20415;-76
2022/11/23 00:11:42;;;;;;;26.33;16.60;;;;;;;10.15;61.00;100040.59;5048870;28;20403;-76
2022/11/23 00:14:08;;;;;;;19.33;14.23;;;;;;;10.22;60.96;100038.06;5045849;28;20396;-76
2022/11/23 00:16:33;;;;;;;20.90;14.55;;;;;;;10.18;60.73;100026.19;5033205;28;20464;-77
2022/11/23 00:19:00;;;;;;;20.37;14.73;;;;;;;10.10;61.06;100030.59;5050098;28;20941;-75
2022/11/23 00:21:27;;;;;;;22.33;15.75;;;;;;;10.11;61.13;100049.94;5044692;28;20401;-75
2022/11/23 00:23:53;;;;;;;18.80;14.73;;;;;;;10.02;61.45;100032.50;5046116;28;21207;-76
2022/11/23 00:26:19;;;;;;;19.90;13.60;;;;;;;10.05;61.93;100034.78;5047689;28;20391;-76
2022/11/23 00:28:44;;;;;;;21.53;14.43;;;;;;;10.02;61.72;100035.16;5048025;28;20835;-76
2022/11/23 00:31:13;;;;;;;20.75;13.82;;;;;;;10.06;61.69;100025.81;5048504;28;20400;-77
2022/11/23 00:33:38;;;;;;;22.65;14.80;;;;;;;10.04;61.22;100020.72;5038552;28;20389;-77
2022/11/23 00:36:05;;;;;;;25.92;16.30;;;;;;;10.07;61.29;100016.88;5048946;28;20409;-76
2022/11/23 00:38:31;;;;;;;25.30;16.02;;;;;;;10.06;61.34;100009.94;5048364;28;20872;-77
2022/11/23 00:41:01;;;;;;;21.90;14.63;;;;;;;9.95;61.62;100004.09;5048710;28;20454;-76
2022/11/23 00:43:28;;;;;;;20.88;13.43;;;;;;;9.89;61.90;99998.72;5049234;28;20384;-76
2022/11/23 00:46:19;;;;;;;21.60;14.77;;;;;;;9.97;61.51;100011.03;5045999;28;20476;-76
2022/11/23 00:48:46;;;;;;;19.95;14.45;;;;;;;9.94;61.73;100015.69;5050942;28;20420;-76
2022/11/23 00:51:14;;;;;;;19.77;13.75;;;;;;;9.97;61.60;100016.34;5055008;28;21685;-76
2022/11/23 00:53:40;;;;;;;20.63;14.00;;;;;;;9.98;61.80;100007.41;5050263;28;20380;-76
2022/11/23 00:56:06;;;;;;;18.93;14.10;;;;;;;10.03;61.67;100005.00;5053114;28;20410;-77
2022/11/23 00:58:32;;;;;;;20.00;13.43;;;;;;;10.02;61.19;99988.28;5056448;28;20748;-76
2022/11/23 01:01:04;;;;;;;19.97;13.80;;;;;;;10.06;61.35;99988.75;5053950;28;20892;-76
2022/11/23 01:03:29;;;;;;;21.55;14.27;;;;;;;10.12;61.53;99988.03;5050861;28;20392;-77
2022/11/23 01:06:00;;;;;;;20.77;14.57;;;;;;;10.03;62.14;99981.16;5049103;28;20399;-76
2022/11/23 01:08:26;;;;;;;21.52;14.82;;;;;;;10.00;62.13;99977.06;5059448;28;20408;-77
2022/11/23 01:10:51;;;;;;;22.50;14.90;;;;;;;10.05;61.57;99972.03;5048845;28;20392;-76
2022/11/23 01:13:17;;;;;;;21.23;14.73;;;;;;;10.03;61.73;99960.81;5051752;28;20402;-76
2022/11/23 01:15:49;;;;;;;23.53;16.17;;;;;;;10.00;61.95;99963.03;5049701;28;20404;-76
2022/11/23 01:18:15;;;;;;;26.70;16.33;;;;;;;9.95;61.91;99956.44;5051783;28;20891;-76
2022/11/23 01:20:40;;;;;;;22.90;15.70;;;;;;;9.94;61.87;99954.00;5054039;28;20435;-76
2022/11/23 01:23:06;;;;;;;20.80;14.80;;;;;;;9.91;62.47;99960.47;5071209;28;20379;-77
2022/11/23 01:25:31;;;;;;;24.60;15.43;;;;;;;9.88;62.17;99958.16;5059409;28;20888;-76
2022/11/23 01:27:56;;;;;;;21.27;14.03;;;;;;;9.91;62.05;99965.75;5058470;28;20401;-77
2022/11/23 01:30:22;;;;;;;22.15;14.25;;;;;;;9.90;62.16;99961.47;5060187;28;20399;-76
2022/11/23 01:32:47;;;;;;;21.50;14.83;;;;;;;9.95;62.20;99958.25;5081379;28;20391;-76
2022/11/23 01:35:13;;;;;;;22.50;15.40;;;;;;;9.97;61.86;99950.16;5073591;28;20408;-76
2022/11/23 01:37:38;;;;;;;27.07;18.20;;;;;;;10.05;62.10;99948.22;5062029;28;20406;-76
2022/11/23 01:40:04;;;;;;;29.57;17.83;;;;;;;10.03;61.94;99955.53;5076453;28;20415;-75
2022/11/23 01:42:55;;;;;;;21.60;14.70;;;;;;;10.14;61.40;99951.59;5069506;28;20456;-76
2022/11/23 01:45:39;;;;;;;20.73;14.63;;;;;;;10.14;61.40;99941.00;5068461;28;20387;-76
2022/11/23 01:48:15;;;;;;;20.85;13.82;;;;;;;10.15;61.30;99942.63;5053023;28;20511;-76
2022/11/23 01:50:41;;;;;;;20.93;14.70;;;;;;;10.10;61.55;99926.47;5059605;28;20515;-76
2022/11/23 01:53:07;;;;;;;19.83;14.38;;;;;;;10.17;61.61;99934.50;5041373;28;20571;-76
2022/11/23 01:55:34;;;;;;;19.85;14.13;;;;;;;10.03;62.05;99938.81;5051579;28;20493;-76
2022/11/23 01:58:01;;;;;;;21.25;14.93;;;;;;;10.10;61.72;99929.94;5028452;28;20832;-76
2022/11/23 02:00:28;;;;;;;22.30;15.40;;;;;;;10.26;61.44;99939.50;5050410;28;20399;-77
2022/11/23 02:02:57;;;;;;;19.88;13.77;;;;;;;10.15;61.32;99939.97;5059432;28;20483;-76
2022/11/23 02:05:29;;;;;;;19.92;13.98;;;;;;;10.01;61.74;99939.00;5051349;28;20902;-76
2022/11/23 02:07:56;;;;;;;19.85;14.38;;;;;;;9.96;62.23;99930.78;5058895;28;20387;-76
2022/11/23 02:10:22;;;;;;;19.98;14.05;;;;;;;10.11;61.96;99941.34;5054763;28;20414;-76
2022/11/23 02:12:48;;;;;;;21.75;14.45;;;;;;;10.10;61.69;99940.53;5059946;28;20475;-76
2022/11/23 02:15:13;;;;;;;22.08;14.88;;;;;;;10.09;61.53;99944.19;5055302;28;20497;-76
2022/11/23 02:17:39;;;;;;;22.27;15.30;;;;;;;10.16;61.71;99938.16;5065646;28;20403;-76
2022/11/23 02:20:09;;;;;;;21.87;15.33;;;;;;;10.09;61.54;99927.47;5052431;28;20913;-76
2022/11/23 02:23:03;;;;;;;20.88;14.18;;;;;;;10.08;61.92;99928.47;5056282;28;20388;-76
2022/11/23 02:25:44;;;;;;;20.50;14.43;;;;;;;10.13;61.69;99940.16;4974299;28;20412;-76
2022/11/23 02:28:20;;;;;;;19.92;13.75;;;;;;;10.11;61.28;99938.72;5049826;28;20731;-76
2022/11/23 02:30:49;;;;;;;19.23;13.93;;;;;;;10.17;61.37;99959.13;5052174;28;20403;-76
2022/11/23 02:33:14;;;;;;;20.17;13.82;;;;;;;10.20;61.28;99961.41;5031474;28;20400;-76
2022/11/23 02:35:55;;;;;;;20.33;14.30;;;;;;;10.13;61.37;99963.16;5032937;28;20873;-77
2022/11/23 02:38:23;;;;;;;20.85;14.88;;;;;;;10.09;61.55;99960.06;5054425;28;20391;-76
2022/11/23 02:40:48;;;;;;;21.58;15.23;;;;;;;10.13;61.51;99963.16;5053390;28;20480;-76
2022/11/23 02:43:14;;;;;;;22.47;14.63;;;;;;;10.16;61.50;99957.50;5053199;28;20890;-76
2022/11/23 02:46:00;;;;;;;21.73;15.23;;;;;;;10.28;61.34;99960.47;5051753;28;20392;-76
2022/11/23 02:48:25;;;;;;;20.77;14.77;;;;;;;10.28;61.21;99958.69;5030469;28;20424;-76
2022/11/23 02:50:51;;;;;;;22.07;15.07;;;;;;;10.22;61.58;99956.75;5045849;28;20421;-76
2022/11/23 02:53:16;;;;;;;21.83;14.70;;;;;;;10.20;61.67;99955.31;5046252;28;20483;-76
2022/11/23 02:55:42;;;;;;;21.87;14.93;;;;;;;10.09;61.68;99948.66;5040915;28;20400;-76
2022/11/23 02:58:08;;;;;;;20.47;14.60;;;;;;;10.01;62.02;99946.09;5033184;28;20410;-76
2022/11/23 03:00:34;;;;;;;20.25;14.32;;;;;;;9.93;62.13;99947.03;5049439;28;20407;-76
2022/11/23 03:03:00;;;;;;;22.02;14.80;;;;;;;10.00;62.06;99947.94;5027488;28;20391;-76
2022/11/23 03:05:26;;;;;;;20.42;14.10;;;;;;;10.05;61.80;99947.41;5048494;28;20411;-76
2022/11/23 03:07:52;;;;;;;20.20;14.10;;;;;;;9.94;62.38;99946.88;5049243;28;20900;-77
2022/11/23 03:10:18;;;;;;;21.13;14.63;;;;;;;9.94;62.25;99949.50;5046751;28;20440;-77
2022/11/23 03:12:43;;;;;;;19.95;14.18;;;;;;;9.91;62.20;99939.28;5043369;28;20945;-77
2022/11/23 03:15:09;;;;;;;21.88;14.40;;;;;;;9.86;62.36;99940.84;5045987;28;20388;-76
2022/11/23 03:17:35;;;;;;;20.90;14.50;;;;;;;9.90;62.64;99952.69;5049201;28;20411;-76
2022/11/23 03:20:00;;;;;;;19.95;13.85;;;;;;;9.82;62.53;99958.09;5047138;28;20393;-76
2022/11/23 03:22:26;;;;;;;22.40;15.07;;;;;;;9.79;62.41;99958.47;5032076;28;20393;-76
2022/11/23 03:24:51;;;;;;;21.80;14.57;;;;;;;9.87;62.16;99975.06;5051118;28;20401;-76
2022/11/23 03:27:17;;;;;;;23.55;15.48;;;;;;;9.92;62.07;99988.59;5064838;28;20387;-76
2022/11/23 03:29:43;;;;;;;21.35;14.57;;;;;;;9.97;62.39;99988.03;5064652;28;21047;-76
2022/11/23 03:32:08;;;;;;;20.03;14.60;;;;;;;9.94;62.43;99989.22;5054119;28;20891;-76
2022/11/23 03:34:34;;;;;;;22.80;14.53;;;;;;;9.98;62.09;99989.69;5050212;28;20476;-76
2022/11/23 03:36:59;;;;;;;20.73;14.63;;;;;;;10.01;61.99;99988.47;5057170;28;20403;-76
2022/11/23 03:39:25;;;;;;;19.00;13.63;;;;;;;10.00;62.09;99985.00;5059885;28;20728;-76
2022/11/23 03:41:50;;;;;;;21.30;14.30;;;;;;;10.06;62.08;99994.84;5052055;28;20459;-76
2022/11/23 03:44:15;;;;;;;22.43;15.47;;;;;;;10.01;61.41;99996.41;5063852;28;20380;-76
2022/11/23 03:46:41;;;;;;;18.97;13.50;;;;;;;9.99;62.06;99998.44;5049405;28;20410;-77
2022/11/23 03:49:06;;;;;;;20.48;14.00;;;;;;;9.92;62.30;99999.19;5055279;28;20388;-76
2022/11/23 03:51:32;;;;;;;20.90;13.33;;;;;;;9.91;62.22;99991.41;5050795;28;20397;-76
2022/11/23 03:53:57;;;;;;;22.47;14.23;;;;;;;9.95;62.42;99993.50;5047645;28;20413;-76
2022/11/23 03:56:23;;;;;;;20.47;14.43;;;;;;;9.94;62.36;99999.81;5029305;28;20882;-74
2022/11/23 03:58:48;;;;;;;22.30;14.07;;;;;;;9.95;62.16;99992.69;5049611;28;20898;-76
2022/11/23 04:01:14;;;;;;;21.37;14.37;;;;;;;10.05;61.79;100000.38;5024275;28;20394;-75
2022/11/23 04:03:39;;;;;;;20.38;13.82;;;;;;;10.09;61.99;99994.50;5055266;28;20726;-76
2022/11/23 04:06:05;;;;;;;25.87;16.07;;;;;;;10.06;61.75;99980.81;5049176;28;20449;-76
2022/11/23 04:08:30;;;;;;;21.80;15.53;;;;;;;9.89;62.75;99967.78;5049156;28;20562;-75
2022/11/23 04:10:57;;;;;;;23.20;16.37;;;;;;;9.89;62.90;99961.66;5040303;28;20393;-74
2022/11/23 04:13:23;;;;;;;20.42;15.20;;;;;;;9.83;62.99;99949.16;5050159;28;20403;-75
2022/11/23 04:15:48;;;;;;;23.03;15.63;;;;;;;9.94;63.25;99959.28;5052347;28;20406;-75
2022/11/23 04:18:14;;;;;;;21.40;14.73;;;;;;;9.92;62.66;99956.81;5049229;28;20876;-75
2022/11/23 04:20:39;;;;;;;21.35;14.25;;;;;;;9.89;62.64;99962.47;5060119;28;20400;-75
2022/11/23 04:23:05;;;;;;;21.43;14.53;;;;;;;9.90;62.66;99961.47;5055550;28;20389;-75
2022/11/23 04:25:30;;;;;;;22.73;15.03;;;;;;;9.94;62.26;99968.03;5035367;28;20854;-74
2022/11/23 04:27:56;;;;;;;22.52;14.85;;;;;;;9.91;62.63;99964.94;5056644;28;20394;-74
2022/11/23 04:30:21;;;;;;;22.23;15.37;;;;;;;9.96;62.70;99978.44;5052463;28;20399;-74
2022/11/23 04:32:47;;;;;;;21.07;14.20;;;;;;;9.93;62.77;99960.28;5056414;28;20387;-75
2022/11/23 04:35:12;;;;;;;22.10;15.40;;;;;;;9.87;62.95;99959.19;5069877;28;20390;-74
2022/11/23 04:37:38;;;;;;;22.17;14.73;;;;;;;9.89;62.65;99966.97;5053888;28;20413;-74
2022/11/23 04:40:04;;;;;;;21.73;14.57;;;;;;;9.94;62.33;99964.59;5046766;28;20487;-74
2022/11/23 04:42:31;;;;;;;22.83;14.75;;;;;;;9.97;62.48;99977.44;5044872;28;20909;-74
2022/11/23 04:44:56;;;;;;;20.27;13.93;;;;;;;10.05;62.55;99968.59;5033456;28;20391;-74
2022/11/23 04:47:23;;;;;;;20.73;14.07;;;;;;;10.07;62.43;99962.09;5045454;28;20819;-75
2022/11/23 04:49:48;;;;;;;20.17;13.48;;;;;;;10.11;62.17;99958.06;5050912;28;20392;-74
2022/11/23 04:52:14;;;;;;;20.37;14.10;;;;;;;10.18;62.20;99952.03;5051992;28;20392;-75
2022/11/23 04:54:39;;;;;;;23.83;17.47;;;;;;;10.09;61.90;99940.72;5051142;28;20442;-75
2022/11/23 04:57:05;;;;;;;24.42;18.02;;;;;;;10.06;62.24;99947.19;5044590;28;20861;-75
2022/11/23 04:59:30;;;;;;;26.67;17.90;;;;;;;10.08;62.46;99945.22;5033372;28;20810;-75
2022/11/23 05:01:56;;;;;;;22.67;16.37;;;;;;;9.97;62.60;99950.97;5037132;28;20962;-75
2022/11/23 05:04:21;;;;;;;21.52;15.07;;;;;;;9.95;62.44;99943.19;5036141;28;20397;-75
2022/11/23 05:06:47;;;;;;;23.87;15.97;;;;;;;10.04;61.97;99949.22;5034822;28;20553;-75
2022/11/23 05:09:12;;;;;;;20.17;13.83;;;;;;;10.08;61.93;99939.91;5035715;28;20423;-75
2022/11/23 05:11:38;;;;;;;20.08;14.30;;;;;;;10.12;61.73;99940.34;5032307;28;21029;-75
2022/11/23 05:14:04;;;;;;;19.90;15.00;;;;;;;10.11;62.10;99947.47;5034936;28;20424;-75
2022/11/23 05:16:29;;;;;;;23.17;16.10;;;;;;;10.15;62.21;99950.56;5034476;28;20512;-75
2022/11/23 05:18:54;;;;;;;19.67;14.32;;;;;;;10.24;61.60;99965.34;5037541;28;20856;-75
2022/11/23 05:21:20;;;;;;;21.13;14.63;;;;;;;10.26;61.63;99965.16;5047882;28;20404;-76
2022/11/23 05:23:46;;;;;;;22.40;15.30;;;;;;;10.35;61.32;99979.16;5040736;28;20443;-76
2022/11/23 05:26:11;;;;;;;20.83;13.97;;;;;;;10.40;61.08;99980.22;5040217;28;20740;-75
2022/11/23 05:28:36;;;;;;;22.57;15.10;;;;;;;10.46;60.99;99986.59;5050137;28;20403;-76
2022/11/23 05:31:03;;;;;;;21.43;15.60;;;;;;;10.51;60.84;99985.06;5051353;28;20408;-76
2022/11/23 05:33:29;;;;;;;19.15;13.30;;;;;;;10.54;60.75;99983.84;5052324;28;20387;-75
2022/11/23 05:35:54;;;;;;;20.27;15.17;;;;;;;10.44;60.71;99978.03;5052625;28;20400;-74
2022/11/23 05:38:19;;;;;;;21.20;14.83;;;;;;;10.32;61.02;99970.56;5048927;28;20408;-75
2022/11/23 05:40:45;;;;;;;27.75;17.08;;;;;;;10.26;61.37;99973.94;5048470;28;20454;-74
2022/11/23 05:43:11;;;;;;;24.65;16.55;;;;;;;10.35;61.57;99979.16;5051594;28;20391;-75
2022/11/23 05:45:37;;;;;;;18.67;13.88;;;;;;;10.32;61.03;99983.81;5052321;28;20408;-77
2022/11/23 05:48:03;;;;;;;22.33;17.80;;;;;;;10.31;61.12;99970.75;5052591;28;20382;-74
2022/11/23 05:50:28;;;;;;;19.23;14.33;;;;;;;10.30;61.43;99974.38;5048739;28;20408;-74
2022/11/23 05:52:58;;;;;;;22.50;15.47;;;;;;;10.19;61.83;99990.75;5051604;28;20404;-75
2022/11/23 05:55:24;;;;;;;20.92;15.88;;;;;;;10.21;61.59;99994.88;5038483;28;20374;-75
2022/11/23 05:57:50;;;;;;;22.77;17.80;;;;;;;10.14;61.44;99999.25;5052296;28;20393;-76
2022/11/23 06:00:17;;;;;;;21.58;14.25;;;;;;;10.17;61.55;99996.22;5051811;28;20395;-75
2022/11/23 06:02:42;;;;;;;20.07;15.20;;;;;;;10.20;61.55;99993.22;5051019;28;20508;-75
2022/11/23 06:05:09;;;;;;;20.53;15.07;;;;;;;10.31;61.61;99984.00;5053367;28;20380;-76
2022/11/23 06:07:35;;;;;;;19.20;13.55;;;;;;;10.28;61.29;99974.56;5059333;28;20397;-76
2022/11/23 06:10:01;;;;;;;21.23;15.52;;;;;;;10.34;61.05;99980.97;5057697;28;20808;-75
2022/11/23 06:12:28;;;;;;;20.33;14.63;;;;;;;10.41;60.73;99983.72;5046546;28;20404;-75
2022/11/23 06:14:54;;;;;;;20.65;14.70;;;;;;;10.35;61.30;99984.44;5044389;28;20391;-76
2022/11/23 06:17:19;;;;;;;19.47;13.77;;;;;;;10.24;61.42;99981.22;5047878;28;20418;-74
2022/11/23 06:19:45;;;;;;;20.80;14.20;;;;;;;10.17;61.51;99982.97;5049877;28;20411;-75
2022/11/23 06:22:10;;;;;;;22.17;14.40;;;;;;;10.27;61.21;99980.88;5035240;28;20392;-74
2022/11/23 06:24:36;;;;;;;21.95;15.27;;;;;;;10.41;61.33;99983.72;5045915;28;20391;-75
2022/11/23 06:27:02;;;;;;;19.17;13.77;;;;;;;10.49;60.99;99979.09;5028127;28;20368;-74
2022/11/23 06:29:27;;;;;;;18.70;12.35;;;;;;;10.51;60.71;99977.09;5043025;28;20402;-74
2022/11/23 06:31:53;;;;;;;19.30;12.65;;;;;;;10.42;60.64;99982.69;5039188;28;20395;-74
2022/11/23 06:34:19;;;;;;;19.27;13.15;;;;;;;10.51;60.92;99989.50;5062806;28;21308;-75
2022/11/23 06:36:44;;;;;;;21.42;15.23;;;;;;;10.56;61.01;99986.31;5047429;28;20412;-75
2022/11/23 06:39:10;;;;;;;18.60;14.00;;;;;;;10.57;60.89;99982.63;5053077;28;20694;-74
2022/11/23 06:41:35;;;;;;;18.80;14.00;;;;;;;10.50;60.80;99966.69;5052560;28;20428;-75
2022/11/23 06:44:01;;;;;;;20.93;15.17;;;;;;;10.39;61.26;99975.09;5050557;28;20402;-76
2022/11/23 06:46:26;;;;;;;17.97;12.47;;;;;;;10.36;61.18;99984.25;5046693;28;20396;-76
2022/11/23 06:48:52;;;;;;;23.10;16.15;;;;;;;10.39;60.86;99986.53;5037864;28;20389;-76
2022/11/23 06:51:17;;;;;;;22.20;15.67;;;;;;;10.48;60.82;99982.78;5047234;28;20753;-76
2022/11/23 06:53:43;;;;;;;22.97;16.43;;;;;;;10.55;60.61;99982.81;5051456;28;20741;-76
2022/11/23 06:56:09;;;;;;;24.40;16.50;;;;;;;10.55;60.51;99982.81;5042767;28;20406;-75
2022/11/23 06:58:35;;;;;;;21.63;15.70;;;;;;;10.51;61.02;99985.06;5038283;28;20394;-75
2022/11/23 07:01:05;;;;;;;17.90;13.32;;;;;;;10.55;60.37;99993.41;5036007;28;20394;-74
2022/11/23 07:03:31;;;;;;;19.08;13.30;;;;;;;10.49;60.83;100002.94;5038858;28;20401;-76
2022/11/23 07:05:57;;;;;;;18.17;13.32;;;;;;;10.51;60.72;100000.13;5044895;28;20389;-74
2022/11/23 07:08:22;;;;;;;19.63;12.70;;;;;;;10.57;60.88;99996.72;5023718;28;20422;-76
2022/11/23 07:10:48;;;;;;;18.50;12.30;;;;;;;10.50;60.69;99998.50;5047454;28;20454;-75
2022/11/23 07:13:14;;;;;;;17.90;12.87;;;;;;;10.56;60.56;99989.78;5032028;28;21156;-75
2022/11/23 07:15:40;;;;;;;17.80;12.48;;;;;;;10.43;60.80;99994.94;5051405;28;20746;-76
2022/11/23 07:18:08;;;;;;;16.17;12.20;;;;;;;10.54;61.03;99998.94;5052555;28;20384;-76
2022/11/23 07:20:34;;;;;;;15.77;12.43;;;;;;;10.59;60.62;100004.47;5048015;28;20776;-76
2022/11/23 07:23:05;;;;;;;20.63;15.23;;;;;;;10.51;60.65;100010.72;5064168;28;20470;-76
2022/11/23 07:25:32;;;;;;;19.80;14.80;;;;;;;10.38;61.10;100021.16;5071514;28;20386;-77
2022/11/23 07:27:59;;;;;;;21.98;15.40;;;;;;;10.30;61.62;100025.53;5062497;28;20742;-75
2022/11/23 07:30:26;;;;;;;24.05;16.00;;;;;;;10.36;61.42;100020.53;5071546;28;20379;-75
2022/11/23 07:32:52;;;;;;;27.27;19.13;;;;;;;10.47;60.90;100015.56;5062352;28;20403;-75
2022/11/23 07:35:21;;;;;;;29.83;20.52;;;;;;;10.37;61.04;100015.06;5049664;28;20866;-76
2022/11/23 07:37:46;;;;;;;17.50;12.82;;;;;;;10.38;61.41;100007.91;5046897;28;20493;-75
2022/11/23 07:43:01;;;;;;;23.58;17.75;;;;;;;10.35;61.17;100003.00;5042168;28;20497;-74
2022/11/23 07:45:28;;;;;;;25.85;19.48;;;;;;;10.37;61.27;100006.25;5060958;28;20478;-75
2022/11/23 07:47:58;;;;;;;19.77;14.57;;;;;;;10.37;61.72;99996.50;5052568;28;20697;-75
2022/11/23 07:50:23;;;;;;;23.88;16.42;;;;;;;10.48;61.48;100006.63;5041786;28;20385;-75
2022/11/23 07:52:49;;;;;;;17.30;12.98;;;;;;;10.55;61.17;100003.22;5046908;28;21314;-75
2022/11/23 07:55:14;;;;;;;25.67;16.57;;;;;;;10.68;60.88;99995.41;5044511;28;20397;-75
2022/11/23 07:57:40;;;;;;;18.17;13.40;;;;;;;10.66;61.06;100000.06;5048828;28;20414;-77
2022/11/23 08:00:06;;;;;;;10.10;7.70;;;;;;;10.75;62.22;100006.06;5051020;28;20841;-75
2022/11/23 08:02:31;;;;;;;18.08;11.77;;;;;;;11.32;66.66;99999.84;5052813;28;20395;-75
2022/11/23 08:04:57;;;;;;;16.80;11.07;;;;;;;11.55;66.07;99986.34;5050027;28;20391;-76
2022/11/23 08:07:22;;;;;;;12.77;9.63;;;;;;;11.72;66.63;99994.84;5047322;28;20380;-76
2022/11/23 08:09:48;;;;;;;14.10;10.07;;;;;;;11.96;66.47;99996.22;5053361;28;20862;-75
2022/11/23 08:12:13;;;;;;;16.33;12.00;;;;;;;11.83;64.01;99993.47;5025758;28;20385;-76
2022/11/23 08:14:38;;;;;;;16.08;12.50;;;;;;;12.03;63.61;99993.59;5051938;28;20384;-75
2022/11/23 08:17:04;;;;;;;15.83;11.67;;;;;;;12.28;62.27;99991.25;5047932;28;20404;-77
2022/11/23 08:19:29;;;;;;;15.40;11.23;;;;;;;12.31;61.77;99984.72;5059382;28;20940;-77
2022/11/23 08:21:55;;;;;;;14.47;11.23;;;;;;;12.10;62.77;99996.25;5061961;28;20382;-75
2022/11/23 08:24:21;;;;;;;13.67;10.47;;;;;;;12.54;62.19;99995.81;5054857;28;20439;-76
2022/11/23 08:26:46;;;;;;;17.10;11.98;;;;;;;12.47;58.49;100002.97;5039702;28;20833;-75
2022/11/23 08:29:12;;;;;;;15.40;11.13;;;;;;;12.16;60.92;99992.84;5052805;28;20388;-76
2022/11/23 08:31:37;;;;;;;15.33;11.73;;;;;;;12.11;58.18;99990.75;5060114;28;20462;-79
2022/11/23 08:34:03;;;;;;;16.97;12.43;;;;;;;11.88;57.97;100001.66;5052042;28;20448;-77
2022/11/23 08:36:28;;;;;;;17.83;12.27;;;;;;;11.65;58.48;100008.06;5049628;28;20485;-76
2022/11/23 08:38:53;;;;;;;15.63;12.10;;;;;;;11.50;58.32;100017.94;5050602;28;20400;-76
2022/11/23 08:41:19;;;;;;;18.00;14.30;;;;;;;11.46;58.35;100017.50;5046606;28;20387;-76
2022/11/23 08:43:49;;;;;;;18.30;12.98;;;;;;;11.42;58.21;100010.16;5051327;28;20431;-75
2022/11/23 08:46:15;;;;;;;17.75;12.98;;;;;;;11.40;58.05;100010.34;5043692;28;20381;-77
2022/11/23 08:48:41;;;;;;;18.67;13.30;;;;;;;11.53;57.90;100006.13;5052985;28;20463;-76
2022/11/23 08:51:08;;;;;;;16.90;12.85;;;;;;;11.59;57.96;100016.78;5053212;28;20916;-76
2022/11/23 08:53:33;;;;;;;18.52;12.27;;;;;;;11.65;57.62;100021.34;5059813;28;20375;-75
2022/11/23 08:56:00;;;;;;;16.60;13.05;;;;;;;11.59;58.05;100021.28;5036935;28;20400;-78
2022/11/23 08:58:26;;;;;;;17.77;12.75;;;;;;;11.61;58.25;100029.88;5037719;28;20775;-76
2022/11/23 09:00:51;;;;;;;17.27;13.27;;;;;;;11.68;57.90;100028.06;5056640;28;20423;-75
2022/11/23 09:03:17;;;;;;;19.23;13.70;;;;;;;11.61;57.97;100028.06;5058959;28;20427;-75
2022/11/23 09:05:42;;;;;;;18.52;14.27;;;;;;;11.48;58.09;100018.13;5062054;28;20859;-76
2022/11/23 09:08:08;;;;;;;21.30;14.83;;;;;;;11.33;57.96;100021.91;5056695;28;20717;-75
2022/11/23 09:10:33;;;;;;;20.17;14.80;;;;;;;11.14;58.64;100013.56;5039171;28;20552;-76
2022/11/23 09:12:59;;;;;;;21.77;16.27;;;;;;;11.04;58.81;100005.16;5036266;28;20378;-76
2022/11/23 09:15:24;;;;;;;19.50;13.70;;;;;;;11.16;58.41;99994.81;5028553;28;20382;-75
2022/11/23 09:17:50;;;;;;;19.05;14.32;;;;;;;11.26;58.23;99990.81;5016790;28;20514;-77
2022/11/23 09:20:16;;;;;;;17.92;13.40;;;;;;;11.20;58.04;99988.97;5040542;28;20772;-75
2022/11/23 09:22:42;;;;;;;24.15;16.70;;;;;;;11.16;58.49;99985.03;5036446;28;20452;-78
2022/11/23 09:25:09;;;;;;;24.95;18.98;;;;;;;11.07;58.49;99980.88;5035166;28;20397;-75
2022/11/23 09:27:34;;;;;;;25.55;18.42;;;;;;;11.10;58.70;99981.31;5034193;28;20429;-75
2022/11/23 09:30:00;;;;;;;24.00;16.17;;;;;;;11.17;58.73;99981.38;5031721;28;20421;-74
2022/11/23 09:32:26;;;;;;;19.10;14.77;;;;;;;11.10;58.84;99972.53;5033321;28;20409;-76
2022/11/23 09:34:52;;;;;;;19.90;14.50;;;;;;;11.05;59.14;99974.94;5025624;28;20444;-75
2022/11/23 09:37:17;;;;;;;19.37;14.57;;;;;;;10.99;58.98;99957.97;5029904;28;20436;-76
2022/11/23 09:39:43;;;;;;;16.90;13.98;;;;;;;11.02;59.22;99954.94;5031370;28;20462;-76
2022/11/23 09:42:36;;;;;;;19.30;14.32;;;;;;;11.12;58.89;99961.75;5037518;28;20722;-78
2022/11/23 09:45:16;;;;;;;22.05;15.57;;;;;;;11.30;58.36;99967.38;5028411;28;20937;-75
2022/11/23 09:47:52;;;;;;;21.25;15.57;;;;;;;11.40;58.28;99957.25;5031441;28;20380;-75
2022/11/23 09:50:25;;;;;;;22.17;15.45;;;;;;;11.48;58.38;99957.09;5034774;28;20379;-78
2022/11/23 09:52:52;;;;;;;20.98;15.73;;;;;;;11.54;57.95;99944.06;5033756;28;20856;-75
2022/11/23 09:55:45;;;;;;;20.25;15.30;;;;;;;11.48;58.10;99948.31;5036915;28;20386;-77
2022/11/23 09:58:17;;;;;;;23.40;16.35;;;;;;;11.49;58.12;99944.66;5012381;28;20400;-76
2022/11/23 10:00:49;;;;;;;20.90;15.73;;;;;;;11.46;58.01;99935.25;5038912;28;20380;-76
2022/11/23 10:03:17;;;;;;;19.93;14.50;;;;;;;11.25;58.46;99936.16;5038346;28;20397;-78
2022/11/23 10:05:53;;;;;;;19.92;14.45;;;;;;;11.12;58.93;99927.25;5029110;28;20781;-78
2022/11/23 10:08:50;;;;;;;20.10;14.55;;;;;;;11.23;58.56;99926.72;5032518;28;20393;-77
2022/11/23 10:11:21;;;;;;;21.90;15.70;;;;;;;11.29;58.37;99932.09;5039200;28;21040;-76
2022/11/23 10:13:55;;;;;;;23.55;16.65;;;;;;;11.20;58.76;99935.91;5026377;28;20763;-76
2022/11/23 10:16:54;;;;;;;26.13;16.88;;;;;;;11.14;58.73;99936.66;5037702;28;20555;-76
2022/11/23 10:19:44;;;;;;;24.00;17.35;;;;;;;11.31;58.73;99947.81;5031201;28;20382;-75
2022/11/23 10:22:21;;;;;;;22.00;15.50;;;;;;;11.38;58.51;99946.03;5037585;28;20381;-76
2022/11/23 10:24:51;;;;;;;20.63;15.13;;;;;;;11.40;58.56;99919.28;5028740;28;20456;-76
2022/11/23 10:27:21;;;;;;;21.80;15.23;;;;;;;11.27;58.48;99906.75;5030005;28;20438;-76
2022/11/23 10:29:48;;;;;;;22.45;15.73;;;;;;;11.23;58.48;99910.81;5031539;28;20396;-76
2022/11/23 10:32:44;;;;;;;22.47;15.63;;;;;;;11.24;58.69;99921.22;5019902;28;20441;-76
2022/11/23 10:35:26;;;;;;;22.95;16.30;;;;;;;11.32;58.74;99935.34;5008016;28;20947;-75
2022/11/23 10:38:07;;;;;;;20.95;14.85;;;;;;;11.34;58.57;99935.97;5035458;28;20768;-76
2022/11/23 10:40:34;;;;;;;17.50;13.52;;;;;;;11.44;58.34;99933.81;5030987;28;20452;-76
2022/11/23 10:43:03;;;;;;;27.85;20.25;;;;;;;11.22;58.45;99919.78;5026139;28;20860;-76
2022/11/23 10:45:28;;;;;;;20.85;14.70;;;;;;;11.04;58.92;99917.63;5025125;28;20442;-78
2022/11/23 10:47:58;;;;;;;17.98;13.77;;;;;;;11.10;58.91;99912.34;5021563;28;20506;-76
2022/11/23 10:50:28;;;;;;;19.88;14.63;;;;;;;11.05;58.59;99912.09;5010796;28;20746;-75
2022/11/23 10:53:00;;;;;;;27.00;18.50;;;;;;;11.08;58.73;99910.91;5029723;28;20710;-76
2022/11/23 10:55:29;;;;;;;33.33;21.98;;;;;;;11.04;59.08;99918.44;5044924;28;20384;-78
2022/11/23 10:57:56;;;;;;;23.95;16.30;;;;;;;11.08;59.17;99927.63;5044988;28;20398;-77
2022/11/23 11:00:24;;;;;;;22.75;14.80;;;;;;;11.26;58.60;99927.16;5040898;28;20374;-76
2022/11/23 11:02:56;;;;;;;22.92;15.88;;;;;;;11.26;58.63;99926.34;5018776;28;20380;-76
2022/11/23 11:05:34;;;;;;;20.97;13.93;;;;;;;11.23;58.43;99922.22;5030033;28;20394;-77
2022/11/23 11:08:20;;;;;;;18.35;13.23;;;;;;;11.14;58.49;99918.09;5020628;28;20467;-77
2022/11/23 11:10:51;;;;;;;18.63;12.90;;;;;;;11.10;58.58;99919.50;5030859;28;20501;-77
2022/11/23 11:13:25;;;;;;;16.98;12.52;;;;;;;11.05;58.38;99925.34;5040476;28;20373;-78
2022/11/23 11:16:02;;;;;;;23.45;14.70;;;;;;;11.03;58.77;99918.63;5023178;28;20388;-77
2022/11/23 11:18:34;;;;;;;21.15;15.25;;;;;;;11.20;58.62;99921.78;5025840;28;20381;-76
2022/11/23 11:21:18;;;;;;;19.95;13.55;;;;;;;11.32;58.16;99914.94;5020787;28;20391;-77
2022/11/23 11:23:52;;;;;;;17.92;12.75;;;;;;;11.24;58.67;99915.91;5032794;28;20388;-77